createdAt,value
2023-04-06T00:03:20.741Z,9.60
2023-04-06T00:08:24.661Z,9.60
2023-04-06T00:13:27.682Z,9.60
2023-04-06T00:18:30.132Z,9.70
2023-04-06T00:23:32.424Z,9.70
2023-04-06T00:28:34.663Z,9.70
2023-04-06T00:33:36.881Z,9.70
2023-04-06T00:38:39.093Z,9.70
2023-04-06T00:43:41.682Z,9.70
2023-04-06T00:48:44.016Z,9.70
2023-04-06T00:53:47.269Z,9.70
2023-04-06T00:58:50.559Z,9.70
2023-04-06T01:03:52.910Z,9.70
2023-04-06T01:08:57.491Z,9.70
2023-04-06T01:14:01.939Z,9.70
2023-04-06T01:19:14.408Z,9.70
2023-04-06T01:24:22.338Z,9.70
2023-04-06T01:29:50.985Z,9.70
2023-04-06T01:35:15.762Z,9.60
2023-04-06T01:40:27.577Z,9.60
2023-04-06T01:45:29.929Z,9.70
2023-04-06T01:50:38.222Z,9.60
2023-04-06T01:55:40.566Z,9.70
2023-04-06T02:00:55.488Z,9.80
2023-04-06T02:05:57.897Z,9.70
2023-04-06T02:11:06.202Z,9.80
2023-04-06T02:16:23.149Z,9.80
2023-04-06T02:21:25.643Z,9.80
2023-04-06T02:26:27.843Z,9.90
2023-04-06T02:31:30.034Z,9.90
2023-04-06T02:36:32.317Z,9.90
2023-04-06T02:41:34.537Z,10.00
2023-04-06T02:46:36.791Z,10.00
2023-04-06T02:51:39.618Z,10.00
2023-04-06T02:57:02.179Z,10.00
2023-04-06T03:02:18.369Z,10.00
2023-04-06T03:07:21.625Z,10.00
2023-04-06T03:12:23.908Z,10.10
2023-04-06T03:17:49.355Z,10.20
2023-04-06T03:23:11.859Z,10.20
2023-04-06T03:28:17.562Z,10.20
2023-04-06T03:33:28.214Z,10.20
2023-04-06T03:38:31.417Z,10.20
2023-04-06T03:43:34.161Z,10.20
2023-04-06T03:48:37.371Z,10.20
2023-04-06T03:53:42.022Z,10.30
2023-04-06T03:58:46.210Z,10.30
2023-04-06T04:03:51.441Z,10.00
2023-04-06T04:08:54.133Z,9.80
2023-04-06T04:13:56.436Z,9.80
2023-04-06T04:18:59.878Z,9.70
2023-04-06T04:24:02.184Z,9.70
2023-04-06T04:29:04.648Z,9.80
2023-04-06T04:34:07.976Z,9.80
2023-04-06T04:39:10.878Z,9.80
2023-04-06T04:44:17.808Z,9.90
2023-04-06T04:49:20.346Z,9.80
2023-04-06T04:54:25.760Z,9.80
2023-04-06T04:59:28.131Z,9.90
2023-04-06T05:04:39.688Z,9.90
2023-04-06T05:09:44.737Z,9.80
2023-04-06T05:14:48.779Z,9.80
2023-04-06T05:19:53.797Z,9.80
2023-04-06T05:24:59.850Z,9.80
2023-04-06T05:30:02.468Z,9.80
2023-04-06T05:35:08.978Z,9.80
2023-04-06T05:40:11.401Z,9.80
2023-04-06T05:45:17.829Z,9.80
2023-04-06T05:50:24.248Z,9.80
2023-04-06T05:55:28.838Z,9.80
2023-04-06T06:00:47.005Z,9.80
2023-04-06T06:05:51.616Z,9.80
2023-04-06T06:11:02.880Z,9.80
2023-04-06T06:16:06.509Z,9.70
2023-04-06T06:21:13.510Z,9.70
2023-04-06T06:26:17.821Z,9.40
2023-04-06T06:31:23.538Z,9.40
2023-04-06T06:36:26.792Z,9.40
2023-04-06T06:41:29.172Z,9.40
2023-04-06T06:46:31.595Z,9.50
2023-04-06T06:51:33.924Z,9.50
2023-04-06T06:56:38.988Z,9.70
2023-04-06T07:01:42.371Z,9.80
2023-04-06T07:06:45.634Z,9.90
2023-04-06T07:11:47.895Z,9.90
2023-04-06T07:16:51.214Z,10.00
2023-04-06T07:21:53.811Z,10.10
2023-04-06T07:26:57.778Z,10.20
2023-04-06T07:32:00.820Z,10.20
2023-04-06T07:37:04.282Z,10.20
2023-04-06T07:42:07.672Z,10.30
2023-04-06T07:47:10.244Z,10.30
2023-04-06T07:52:13.387Z,10.30
2023-04-06T07:57:17.681Z,10.40
2023-04-06T08:02:20.050Z,10.40
2023-04-06T08:07:22.252Z,10.50
2023-04-06T08:12:24.442Z,10.70
2023-04-06T08:17:28.504Z,11.10
2023-04-06T08:22:30.705Z,11.10
2023-04-06T08:27:33.569Z,11.10
2023-04-06T08:32:35.943Z,11.30
2023-04-06T08:37:38.197Z,11.30
2023-04-06T08:42:50.602Z,11.50
2023-04-06T08:47:55.987Z,11.60
2023-04-06T08:52:58.305Z,11.60
2023-04-06T08:58:01.287Z,11.70
2023-04-06T09:03:06.601Z,11.60
2023-04-06T09:08:09.287Z,11.50
2023-04-06T09:13:11.609Z,11.50
2023-04-06T09:18:13.842Z,11.70
2023-04-06T09:23:20.075Z,11.70
2023-04-06T09:28:22.357Z,11.80
2023-04-06T09:33:25.020Z,12.00
2023-04-06T09:38:27.228Z,12.30
2023-04-06T09:43:30.207Z,12.50
2023-04-06T09:48:34.799Z,12.30
2023-04-06T09:53:40.411Z,12.10
2023-04-06T09:58:47.366Z,12.40
2023-04-06T10:04:19.203Z,12.40
2023-04-06T10:09:26.196Z,12.50
2023-04-06T10:14:28.413Z,12.70
2023-04-06T10:19:37.760Z,12.90
2023-04-06T10:24:40.117Z,12.80
2023-04-06T10:29:47.924Z,13.10
2023-04-06T10:34:50.133Z,13.20
2023-04-06T10:40:01.417Z,12.90
2023-04-06T10:45:07.651Z,13.20
2023-04-06T10:50:12.323Z,13.50
2023-04-06T10:55:18.184Z,13.50
2023-04-06T11:00:21.380Z,14.00
2023-04-06T11:05:23.542Z,14.10
2023-04-06T11:10:25.698Z,13.70
2023-04-06T11:15:28.027Z,13.60
2023-04-06T11:20:30.368Z,13.90
2023-04-06T11:25:33.915Z,14.00
2023-04-06T11:30:36.263Z,13.80
2023-04-06T11:35:38.678Z,13.70
2023-04-06T11:40:40.922Z,13.90
2023-04-06T11:45:44.230Z,14.40
2023-04-06T11:50:49.643Z,14.40
2023-04-06T11:55:51.987Z,14.40
2023-04-06T12:00:54.183Z,14.10
2023-04-06T12:05:58.171Z,13.90
2023-04-06T12:11:01.863Z,13.80
2023-04-06T12:16:03.987Z,13.70
2023-04-06T12:21:06.565Z,14.10
2023-04-06T12:26:13.335Z,14.00
2023-04-06T12:31:17.746Z,13.80
2023-04-06T12:36:22.160Z,14.30
2023-04-06T12:41:24.495Z,14.80
2023-04-06T12:46:27.172Z,14.50
2023-04-06T12:51:29.680Z,14.80
2023-04-06T12:56:32.204Z,14.70
2023-04-06T13:01:35.142Z,15.30
2023-04-06T13:06:37.540Z,15.40
2023-04-06T13:11:39.938Z,15.60
2023-04-06T13:16:42.254Z,15.90
2023-04-06T13:21:44.518Z,15.70
2023-04-06T13:26:47.009Z,16.10
2023-04-06T13:31:49.180Z,16.80
2023-04-06T13:36:51.766Z,16.60
2023-04-06T13:41:57.734Z,16.10
2023-04-06T13:47:00.621Z,15.40
2023-04-06T13:52:02.804Z,15.10
2023-04-06T13:57:06.782Z,14.70
2023-04-06T14:02:10.934Z,14.50
2023-04-06T14:07:13.151Z,14.40
2023-04-06T14:12:15.233Z,14.50
2023-04-06T14:17:17.344Z,14.10
2023-04-06T14:22:19.479Z,14.20
2023-04-06T14:27:22.063Z,14.60
2023-04-06T14:32:25.915Z,15.00
2023-04-06T14:37:28.144Z,15.40
2023-04-06T14:42:30.658Z,16.00
2023-04-06T14:47:33.224Z,15.50
2023-04-06T14:52:36.029Z,16.00
2023-04-06T14:57:38.666Z,15.10
2023-04-06T15:02:41.215Z,14.80
2023-04-06T15:07:43.514Z,15.20
2023-04-06T15:12:45.640Z,15.30
2023-04-06T15:17:47.789Z,15.30
2023-04-06T15:22:49.958Z,15.30
2023-04-06T15:27:52.009Z,15.00
2023-04-06T15:33:01.750Z,14.80
2023-04-06T15:38:03.933Z,15.10
2023-04-06T15:43:05.996Z,15.80
2023-04-06T15:48:08.983Z,15.20
2023-04-06T15:53:11.129Z,14.70
2023-04-06T15:58:13.279Z,14.80
2023-04-06T16:03:15.658Z,14.90
2023-04-06T16:08:19.409Z,14.90
2023-04-06T16:13:21.722Z,14.80
2023-04-06T16:18:23.822Z,15.10
2023-04-06T16:23:25.996Z,15.20
2023-04-06T16:28:28.454Z,14.70
2023-04-06T16:33:30.501Z,14.40
2023-04-06T16:38:35.717Z,14.00
2023-04-06T16:43:37.818Z,13.80
2023-04-06T16:48:39.999Z,14.30
2023-04-06T16:53:42.049Z,13.90
2023-04-06T16:58:45.655Z,13.60
2023-04-06T17:03:48.207Z,13.40
2023-04-06T17:08:51.215Z,13.80
2023-04-06T17:13:53.444Z,13.60
2023-04-06T17:18:55.740Z,13.90
2023-04-06T17:23:57.866Z,14.10
2023-04-06T17:28:59.883Z,14.10
2023-04-06T17:34:02.555Z,13.50
2023-04-06T17:39:04.831Z,13.10
2023-04-06T17:44:06.940Z,12.80
2023-04-06T17:49:09.441Z,12.50
2023-04-06T17:54:11.709Z,12.50
2023-04-06T17:59:13.856Z,12.60
2023-04-06T18:04:16.142Z,12.70
2023-04-06T18:09:18.221Z,12.60
2023-04-06T18:14:20.409Z,12.50
2023-04-06T18:19:22.461Z,12.60
2023-04-06T18:24:40.489Z,12.50
2023-04-06T18:29:45.338Z,12.20
2023-04-06T18:34:47.478Z,12.10
2023-04-06T18:39:49.646Z,11.80
2023-04-06T18:44:51.674Z,11.60
2023-04-06T18:49:53.864Z,11.50
2023-04-06T18:54:55.973Z,11.30
2023-04-06T18:59:58.181Z,11.20
2023-04-06T19:05:00.599Z,11.10
2023-04-06T19:10:02.794Z,11.00
2023-04-06T19:15:06.453Z,10.90
2023-04-06T19:20:08.924Z,10.80
2023-04-06T19:25:11.710Z,10.70
2023-04-06T19:30:13.874Z,10.70
2023-04-06T19:35:16.151Z,10.70
2023-04-06T19:40:18.236Z,10.70
2023-04-06T19:45:20.702Z,10.60
2023-04-06T19:50:22.853Z,10.60
2023-04-06T19:55:24.936Z,10.60
2023-04-06T20:00:27.164Z,10.50
2023-04-06T20:05:29.221Z,10.40
2023-04-06T20:10:31.336Z,10.40
2023-04-06T20:15:33.464Z,10.40
2023-04-06T20:20:35.506Z,10.40
2023-04-06T20:25:37.588Z,10.40
2023-04-06T20:30:40.060Z,10.30
2023-04-06T20:35:42.082Z,10.10
2023-04-06T20:40:47.012Z,10.00
2023-04-06T20:45:49.542Z,10.00
2023-04-06T20:50:51.755Z,9.80
2023-04-06T20:55:55.210Z,9.60
2023-04-06T21:00:57.336Z,9.60
2023-04-06T21:05:59.917Z,9.60
2023-04-06T21:11:02.576Z,9.70
2023-04-06T21:16:05.669Z,9.70
2023-04-06T21:21:07.803Z,9.70
2023-04-06T21:26:12.814Z,9.60
2023-04-06T21:31:16.672Z,9.50
2023-04-06T21:36:19.290Z,9.40
2023-04-06T21:41:21.968Z,9.30
2023-04-06T21:46:24.096Z,9.30
2023-04-06T21:51:26.528Z,9.20
2023-04-06T21:56:28.601Z,9.20
2023-04-06T22:01:30.916Z,9.10
2023-04-06T22:06:32.921Z,9.00
2023-04-06T22:11:35.100Z,8.90
2023-04-06T22:16:37.240Z,8.70
2023-04-06T22:21:39.404Z,8.70
2023-04-06T22:26:41.731Z,8.70
2023-04-06T22:31:45.550Z,8.70
2023-04-06T22:36:49.180Z,8.70
2023-04-06T22:41:51.267Z,8.70
2023-04-06T22:46:53.397Z,8.50
2023-04-06T22:51:55.452Z,8.40
2023-04-06T22:56:57.547Z,8.40
2023-04-06T23:01:59.948Z,8.40
2023-04-06T23:07:02.179Z,8.40
2023-04-06T23:12:04.440Z,8.40
2023-04-06T23:17:06.862Z,8.30
2023-04-06T23:22:09.110Z,8.10
2023-04-06T23:27:11.310Z,8.00
2023-04-06T23:32:13.444Z,8.00
2023-04-06T23:37:15.730Z,7.70
2023-04-06T23:42:17.872Z,7.60
2023-04-06T23:47:20.035Z,7.70
2023-04-06T23:52:22.265Z,7.60
2023-04-06T23:57:24.403Z,7.50
